sensor_id;sensor_type;location;lat;lon;timestamp;pressure;altitude;pressure_sealevel;temperature;humidity
69980;BME280;57318;56.232;43.944;2022-12-08T00:00:46;100715.28;;;-14.62;78.34
69980;BME280;57318;56.232;43.944;2022-12-08T00:03:12;100721.28;;;-14.61;78.63
69980;BME280;57318;56.232;43.944;2022-12-08T00:05:43;100713.31;;;-14.69;78.43
69980;BME280;57318;56.232;43.944;2022-12-08T00:08:27;100709.94;;;-14.68;78.49
69980;BME280;57318;56.232;43.944;2022-12-08T00:11:12;100718.34;;;-14.71;78.42
69980;BME280;57318;56.232;43.944;2022-12-08T00:13:38;100714.81;;;-14.74;78.62
69980;BME280;57318;56.232;43.944;2022-12-08T00:16:04;100723.13;;;-14.78;78.49
69980;BME280;57318;56.232;43.944;2022-12-08T00:18:29;100708.69;;;-14.78;78.66
69980;BME280;57318;56.232;43.944;2022-12-08T00:20:56;100706.13;;;-14.78;78.53
69980;BME280;57318;56.232;43.944;2022-12-08T00:23:21;100701.16;;;-14.75;78.48
69980;BME280;57318;56.232;43.944;2022-12-08T00:25:47;100710.50;;;-14.75;78.33
69980;BME280;57318;56.232;43.944;2022-12-08T00:28:13;100690.88;;;-14.76;78.26
69980;BME280;57318;56.232;43.944;2022-12-08T00:30:40;100702.78;;;-14.77;78.43
69980;BME280;57318;56.232;43.944;2022-12-08T00:33:05;100700.16;;;-14.78;78.32
69980;BME280;57318;56.232;43.944;2022-12-08T00:35:31;100698.41;;;-14.79;78.36
69980;BME280;57318;56.232;43.944;2022-12-08T00:37:57;100694.81;;;-14.84;78.32
69980;BME280;57318;56.232;43.944;2022-12-08T00:40:22;100704.06;;;-14.86;78.45
69980;BME280;57318;56.232;43.944;2022-12-08T00:42:48;100697.34;;;-14.84;78.28
69980;BME280;57318;56.232;43.944;2022-12-08T00:45:13;100690.38;;;-14.89;78.19
69980;BME280;57318;56.232;43.944;2022-12-08T00:47:39;100693.75;;;-14.90;78.29
69980;BME280;57318;56.232;43.944;2022-12-08T00:50:05;100690.84;;;-14.97;78.22
69980;BME280;57318;56.232;43.944;2022-12-08T00:52:31;100695.91;;;-14.99;78.53
69980;BME280;57318;56.232;43.944;2022-12-08T00:54:56;100690.78;;;-14.99;78.36
69980;BME280;57318;56.232;43.944;2022-12-08T00:57:22;100683.28;;;-14.96;78.48
69980;BME280;57318;56.232;43.944;2022-12-08T00:59:48;100702.75;;;-14.98;78.17
69980;BME280;57318;56.232;43.944;2022-12-08T01:02:13;100704.59;;;-14.94;78.42
69980;BME280;57318;56.232;43.944;2022-12-08T01:04:39;100704.53;;;-14.95;78.13
69980;BME280;57318;56.232;43.944;2022-12-08T01:07:06;100686.63;;;-14.97;77.98
69980;BME280;57318;56.232;43.944;2022-12-08T01:09:32;100717.22;;;-14.97;78.28
69980;BME280;57318;56.232;43.944;2022-12-08T01:11:58;100689.72;;;-15.04;78.38
69980;BME280;57318;56.232;43.944;2022-12-08T01:14:23;100694.91;;;-15.02;78.10
69980;BME280;57318;56.232;43.944;2022-12-08T01:16:49;100709.31;;;-15.03;77.88
69980;BME280;57318;56.232;43.944;2022-12-08T01:19:16;100703.28;;;-15.05;77.87
69980;BME280;57318;56.232;43.944;2022-12-08T01:21:42;100702.47;;;-15.04;77.94
69980;BME280;57318;56.232;43.944;2022-12-08T01:24:15;100697.25;;;-15.07;78.24
69980;BME280;57318;56.232;43.944;2022-12-08T01:26:41;100691.25;;;-15.08;77.93
69980;BME280;57318;56.232;43.944;2022-12-08T01:29:08;100698.03;;;-15.08;77.98
69980;BME280;57318;56.232;43.944;2022-12-08T01:31:33;100704.63;;;-15.13;78.04
69980;BME280;57318;56.232;43.944;2022-12-08T01:33:59;100703.59;;;-15.17;78.06
69980;BME280;57318;56.232;43.944;2022-12-08T01:36:27;100696.91;;;-15.15;77.96
69980;BME280;57318;56.232;43.944;2022-12-08T01:38:56;100701.06;;;-15.17;78.04
69980;BME280;57318;56.232;43.944;2022-12-08T01:41:24;100690.00;;;-15.17;77.96
69980;BME280;57318;56.232;43.944;2022-12-08T01:46:39;100683.06;;;-15.20;77.79
69980;BME280;57318;56.232;43.944;2022-12-08T01:49:16;100670.47;;;-15.17;78.02
69980;BME280;57318;56.232;43.944;2022-12-08T01:54:42;100683.19;;;-15.17;77.56
69980;BME280;57318;56.232;43.944;2022-12-08T01:57:11;100655.16;;;-15.17;77.36
69980;BME280;57318;56.232;43.944;2022-12-08T01:59:47;100686.44;;;-15.21;77.35
69980;BME280;57318;56.232;43.944;2022-12-08T02:02:14;100678.59;;;-15.26;77.44
69980;BME280;57318;56.232;43.944;2022-12-08T02:04:39;100688.72;;;-15.27;76.95
69980;BME280;57318;56.232;43.944;2022-12-08T02:07:07;100675.84;;;-15.30;77.59
69980;BME280;57318;56.232;43.944;2022-12-08T02:09:34;100691.06;;;-15.32;77.37
69980;BME280;57318;56.232;43.944;2022-12-08T02:12:00;100673.88;;;-15.36;77.59
69980;BME280;57318;56.232;43.944;2022-12-08T02:14:46;100688.09;;;-15.41;77.64
69980;BME280;57318;56.232;43.944;2022-12-08T02:28:18;100691.31;;;-15.45;77.28
69980;BME280;57318;56.232;43.944;2022-12-08T02:41:29;100687.28;;;-15.59;77.44
69980;BME280;57318;56.232;43.944;2022-12-08T02:44:05;100685.56;;;-15.60;77.44
69980;BME280;57318;56.232;43.944;2022-12-08T02:46:38;100667.56;;;-15.64;77.53
69980;BME280;57318;56.232;43.944;2022-12-08T02:49:05;100676.00;;;-15.65;77.49
69980;BME280;57318;56.232;43.944;2022-12-08T02:51:31;100658.31;;;-15.62;77.54
69980;BME280;57318;56.232;43.944;2022-12-08T02:53:57;100667.56;;;-15.64;77.33
69980;BME280;57318;56.232;43.944;2022-12-08T02:56:38;100669.97;;;-15.67;77.43
69980;BME280;57318;56.232;43.944;2022-12-08T02:59:35;100664.75;;;-15.70;77.52
69980;BME280;57318;56.232;43.944;2022-12-08T03:16:06;100658.63;;;-15.73;77.34
69980;BME280;57318;56.232;43.944;2022-12-08T03:18:37;100658.63;;;-15.73;77.22
69980;BME280;57318;56.232;43.944;2022-12-08T03:21:05;100653.88;;;-15.66;77.26
69980;BME280;57318;56.232;43.944;2022-12-08T03:23:31;100637.72;;;-15.66;76.83
69980;BME280;57318;56.232;43.944;2022-12-08T03:26:04;100635.97;;;-15.67;76.88
69980;BME280;57318;56.232;43.944;2022-12-08T03:28:33;100658.97;;;-15.66;76.88
69980;BME280;57318;56.232;43.944;2022-12-08T03:31:01;100648.00;;;-15.65;76.81
69980;BME280;57318;56.232;43.944;2022-12-08T03:33:35;100654.84;;;-15.64;76.89
69980;BME280;57318;56.232;43.944;2022-12-08T03:36:04;100648.78;;;-15.66;76.80
69980;BME280;57318;56.232;43.944;2022-12-08T03:38:43;100642.16;;;-15.62;76.58
69980;BME280;57318;56.232;43.944;2022-12-08T03:41:09;100648.72;;;-15.67;76.71
69980;BME280;57318;56.232;43.944;2022-12-08T03:43:46;100634.47;;;-15.64;76.77
69980;BME280;57318;56.232;43.944;2022-12-08T03:46:14;100642.91;;;-15.65;76.65
69980;BME280;57318;56.232;43.944;2022-12-08T03:48:40;100631.91;;;-15.64;76.44
69980;BME280;57318;56.232;43.944;2022-12-08T03:51:06;100643.75;;;-15.64;76.42
69980;BME280;57318;56.232;43.944;2022-12-08T03:53:31;100637.94;;;-15.62;76.46
69980;BME280;57318;56.232;43.944;2022-12-08T03:55:57;100636.19;;;-15.63;76.53
69980;BME280;57318;56.232;43.944;2022-12-08T03:58:23;100634.47;;;-15.64;76.50
69980;BME280;57318;56.232;43.944;2022-12-08T04:00:48;100631.09;;;-15.63;76.38
69980;BME280;57318;56.232;43.944;2022-12-08T04:03:14;100644.78;;;-15.60;76.27
69980;BME280;57318;56.232;43.944;2022-12-08T04:05:39;100641.22;;;-15.64;76.44
69980;BME280;57318;56.232;43.944;2022-12-08T04:08:05;100635.19;;;-15.66;76.27
69980;BME280;57318;56.232;43.944;2022-12-08T04:10:31;100629.22;;;-15.67;76.23
69980;BME280;57318;56.232;43.944;2022-12-08T04:12:56;100621.59;;;-15.67;76.16
69980;BME280;57318;56.232;43.944;2022-12-08T04:15:22;100626.47;;;-15.71;76.51
69980;BME280;57318;56.232;43.944;2022-12-08T04:17:47;100638.31;;;-15.72;76.21
69980;BME280;57318;56.232;43.944;2022-12-08T04:20:13;100629.69;;;-15.75;76.49
69980;BME280;57318;56.232;43.944;2022-12-08T04:22:38;100627.72;;;-15.83;76.58
69980;BME280;57318;56.232;43.944;2022-12-08T04:25:04;100631.63;;;-15.89;76.71
69980;BME280;57318;56.232;43.944;2022-12-08T04:27:30;100625.31;;;-15.98;76.70
69980;BME280;57318;56.232;43.944;2022-12-08T04:29:56;100630.41;;;-15.98;76.75
69980;BME280;57318;56.232;43.944;2022-12-08T04:32:21;100624.31;;;-16.01;76.70
69980;BME280;57318;56.232;43.944;2022-12-08T04:34:47;100614.72;;;-16.07;76.72
69980;BME280;57318;56.232;43.944;2022-12-08T04:37:12;100620.47;;;-16.11;77.15
69980;BME280;57318;56.232;43.944;2022-12-08T04:39:38;100634.16;;;-16.09;77.05
69980;BME280;57318;56.232;43.944;2022-12-08T04:42:03;100614.91;;;-16.02;77.00
69980;BME280;57318;56.232;43.944;2022-12-08T04:44:29;100623.22;;;-16.06;77.07
69980;BME280;57318;56.232;43.944;2022-12-08T04:46:54;100617.25;;;-16.07;77.02
69980;BME280;57318;56.232;43.944;2022-12-08T04:49:20;100616.47;;;-16.06;76.96
69980;BME280;57318;56.232;43.944;2022-12-08T04:51:46;100610.31;;;-16.11;76.93
69980;BME280;57318;56.232;43.944;2022-12-08T04:54:11;100613.78;;;-16.09;77.03
69980;BME280;57318;56.232;43.944;2022-12-08T04:56:37;100620.47;;;-16.11;76.80
69980;BME280;57318;56.232;43.944;2022-12-08T04:59:02;100614.28;;;-16.16;77.11
69980;BME280;57318;56.232;43.944;2022-12-08T05:01:28;100604.38;;;-16.10;76.92
69980;BME280;57318;56.232;43.944;2022-12-08T05:03:54;100616.81;;;-16.16;76.99
69980;BME280;57318;56.232;43.944;2022-12-08T05:06:19;100606.56;;;-16.18;77.07
69980;BME280;57318;56.232;43.944;2022-12-08T05:08:45;100600.78;;;-16.15;77.07
69980;BME280;57318;56.232;43.944;2022-12-08T05:11:11;100601.56;;;-16.16;77.12
69980;BME280;57318;56.232;43.944;2022-12-08T05:13:37;100588.97;;;-16.13;76.74
69980;BME280;57318;56.232;43.944;2022-12-08T05:16:21;100587.25;;;-16.14;76.86
69980;BME280;57318;56.232;43.944;2022-12-08T05:18:46;100601.84;;;-16.10;76.74
69980;BME280;57318;56.232;43.944;2022-12-08T05:21:12;100607.00;;;-16.08;76.73
69980;BME280;57318;56.232;43.944;2022-12-08T05:23:37;100606.06;;;-16.10;76.97
69980;BME280;57318;56.232;43.944;2022-12-08T05:26:03;100596.59;;;-16.13;76.68
69980;BME280;57318;56.232;43.944;2022-12-08T05:28:29;100592.66;;;-16.06;76.48
69980;BME280;57318;56.232;43.944;2022-12-08T05:30:54;100599.38;;;-16.08;76.43
69980;BME280;57318;56.232;43.944;2022-12-08T05:33:20;100604.59;;;-16.05;76.35
69980;BME280;57318;56.232;43.944;2022-12-08T05:35:45;100594.56;;;-16.02;76.56
69980;BME280;57318;56.232;43.944;2022-12-08T05:38:11;100610.03;;;-15.98;76.21
69980;BME280;57318;56.232;43.944;2022-12-08T05:40:38;100595.97;;;-15.89;75.92
69980;BME280;57318;56.232;43.944;2022-12-08T05:43:04;100588.06;;;-15.76;75.40
69980;BME280;57318;56.232;43.944;2022-12-08T05:45:30;100588.88;;;-15.57;74.99
69980;BME280;57318;56.232;43.944;2022-12-08T05:47:55;100582.00;;;-15.39;74.31
69980;BME280;57318;56.232;43.944;2022-12-08T05:50:21;100577.09;;;-14.94;72.42
69980;BME280;57318;56.232;43.944;2022-12-08T05:52:46;100580.81;;;-14.85;71.56
69980;BME280;57318;56.232;43.944;2022-12-08T05:55:12;100572.72;;;-14.53;70.90
69980;BME280;57318;56.232;43.944;2022-12-08T05:57:39;100577.03;;;-14.29;69.70
69980;BME280;57318;56.232;43.944;2022-12-08T06:00:05;100563.72;;;-14.22;68.66
69980;BME280;57318;56.232;43.944;2022-12-08T06:02:31;100580.25;;;-14.35;69.07
69980;BME280;57318;56.232;43.944;2022-12-08T06:04:56;100579.63;;;-14.06;68.40
69980;BME280;57318;56.232;43.944;2022-12-08T06:07:22;100577.63;;;-13.91;67.39
69980;BME280;57318;56.232;43.944;2022-12-08T06:09:47;100570.31;;;-14.04;67.79
69980;BME280;57318;56.232;43.944;2022-12-08T06:12:13;100565.78;;;-13.89;66.83
69980;BME280;57318;56.232;43.944;2022-12-08T06:14:40;100580.38;;;-13.85;66.85
69980;BME280;57318;56.232;43.944;2022-12-08T06:17:06;100547.16;;;-13.62;66.47
69980;BME280;57318;56.232;43.944;2022-12-08T06:19:31;100559.03;;;-13.38;65.57
69980;BME280;57318;56.232;43.944;2022-12-08T06:21:57;100571.91;;;-12.84;63.84
69980;BME280;57318;56.232;43.944;2022-12-08T06:24:22;100574.78;;;-12.19;62.01
69980;BME280;57318;56.232;43.944;2022-12-08T06:26:48;100547.78;;;-11.77;59.99
69980;BME280;57318;56.232;43.944;2022-12-08T06:29:14;100566.09;;;-11.63;59.14
69980;BME280;57318;56.232;43.944;2022-12-08T06:31:40;100554.56;;;-11.49;58.21
69980;BME280;57318;56.232;43.944;2022-12-08T06:34:05;100549.75;;;-11.35;57.70
69980;BME280;57318;56.232;43.944;2022-12-08T06:36:31;100542.47;;;-11.19;57.56
69980;BME280;57318;56.232;43.944;2022-12-08T06:38:56;100558.56;;;-10.92;56.72
69980;BME280;57318;56.232;43.944;2022-12-08T06:41:23;100552.38;;;-10.65;55.74
69980;BME280;57318;56.232;43.944;2022-12-08T06:43:48;100548.25;;;-10.58;55.25
69980;BME280;57318;56.232;43.944;2022-12-08T06:46:17;100552.59;;;-10.56;54.91
69980;BME280;57318;56.232;43.944;2022-12-08T06:48:42;100564.44;;;-10.23;54.06
69980;BME280;57318;56.232;43.944;2022-12-08T06:51:10;100565.53;;;-10.11;53.44
69980;BME280;57318;56.232;43.944;2022-12-08T06:53:37;100534.50;;;-10.21;53.47
69980;BME280;57318;56.232;43.944;2022-12-08T06:56:03;100552.66;;;-10.13;53.79
69980;BME280;57318;56.232;43.944;2022-12-08T06:58:28;100546.31;;;-9.89;53.12
69980;BME280;57318;56.232;43.944;2022-12-08T07:00:54;100540.56;;;-9.77;52.79
69980;BME280;57318;56.232;43.944;2022-12-08T07:03:20;100553.69;;;-9.62;52.41
69980;BME280;57318;56.232;43.944;2022-12-08T07:05:45;100540.84;;;-9.62;51.62
69980;BME280;57318;56.232;43.944;2022-12-08T07:08:11;100533.59;;;-9.82;52.22
69980;BME280;57318;56.232;43.944;2022-12-08T07:10:37;100553.41;;;-9.33;51.61
69980;BME280;57318;56.232;43.944;2022-12-08T07:13:03;100533.41;;;-8.99;50.44
69980;BME280;57318;56.232;43.944;2022-12-08T07:15:29;100557.66;;;-8.88;50.09
69980;BME280;57318;56.232;43.944;2022-12-08T07:17:54;100538.22;;;-8.69;49.54
69980;BME280;57318;56.232;43.944;2022-12-08T07:20:20;100544.94;;;-8.76;49.87
69980;BME280;57318;56.232;43.944;2022-12-08T07:22:52;100547.22;;;-8.39;48.92
69980;BME280;57318;56.232;43.944;2022-12-08T07:25:18;100563.41;;;-8.49;48.82
69980;BME280;57318;56.232;43.944;2022-12-08T07:27:44;100527.44;;;-8.39;48.66
69980;BME280;57318;56.232;43.944;2022-12-08T07:30:11;100518.50;;;-8.65;49.31
69980;BME280;57318;56.232;43.944;2022-12-08T07:32:38;100524.78;;;-8.46;48.85
69980;BME280;57318;56.232;43.944;2022-12-08T07:35:04;100527.53;;;-8.32;48.53
69980;BME280;57318;56.232;43.944;2022-12-08T07:37:32;100523.66;;;-8.01;48.00
69980;BME280;57318;56.232;43.944;2022-12-08T07:39:57;100527.97;;;-8.00;48.07
69980;BME280;57318;56.232;43.944;2022-12-08T07:42:23;100524.00;;;-7.73;47.35
69980;BME280;57318;56.232;43.944;2022-12-08T07:44:49;100533.59;;;-7.62;46.59
69980;BME280;57318;56.232;43.944;2022-12-08T07:47:17;100525.69;;;-7.77;47.01
69980;BME280;57318;56.232;43.944;2022-12-08T07:49:44;100517.56;;;-7.31;46.42
69980;BME280;57318;56.232;43.944;2022-12-08T07:52:10;100518.19;;;-7.55;46.68
69980;BME280;57318;56.232;43.944;2022-12-08T07:54:35;100499.34;;;-7.45;46.42
69980;BME280;57318;56.232;43.944;2022-12-08T07:57:01;100497.25;;;-7.80;46.94
69980;BME280;57318;56.232;43.944;2022-12-08T07:59:28;100499.25;;;-7.56;46.73
69980;BME280;57318;56.232;43.944;2022-12-08T08:01:54;100488.97;;;-7.54;46.75
69980;BME280;57318;56.232;43.944;2022-12-08T08:04:19;100489.00;;;-7.47;46.75
69980;BME280;57318;56.232;43.944;2022-12-08T08:06:45;100497.47;;;-7.62;47.01
69980;BME280;57318;56.232;43.944;2022-12-08T08:09:10;100493.31;;;-7.46;46.46
69980;BME280;57318;56.232;43.944;2022-12-08T08:11:36;100504.91;;;-7.03;45.43
69980;BME280;57318;56.232;43.944;2022-12-08T08:14:02;100502.34;;;-7.03;45.54
69980;BME280;57318;56.232;43.944;2022-12-08T08:16:27;100508.47;;;-6.91;45.49
69980;BME280;57318;56.232;43.944;2022-12-08T08:18:53;100513.47;;;-7.11;45.63
69980;BME280;57318;56.232;43.944;2022-12-08T08:21:20;100494.72;;;-6.86;45.64
69980;BME280;57318;56.232;43.944;2022-12-08T08:23:45;100510.50;;;-6.48;44.95
69980;BME280;57318;56.232;43.944;2022-12-08T08:26:11;100517.31;;;-6.61;45.35
69980;BME280;57318;56.232;43.944;2022-12-08T08:28:37;100507.88;;;-6.56;44.73
69980;BME280;57318;56.232;43.944;2022-12-08T08:31:04;100503.34;;;-6.84;45.02
69980;BME280;57318;56.232;43.944;2022-12-08T08:33:29;100501.97;;;-6.39;44.82
69980;BME280;57318;56.232;43.944;2022-12-08T08:35:55;100500.25;;;-6.34;44.57
69980;BME280;57318;56.232;43.944;2022-12-08T08:38:21;100496.13;;;-6.01;43.88
69980;BME280;57318;56.232;43.944;2022-12-08T08:40:46;100476.31;;;-5.84;43.43
69980;BME280;57318;56.232;43.944;2022-12-08T08:43:12;100497.84;;;-5.94;43.58
69980;BME280;57318;56.232;43.944;2022-12-08T08:45:59;100498.69;;;-6.01;43.28
69980;BME280;57318;56.232;43.944;2022-12-08T08:48:28;100497.75;;;-6.20;44.26
69980;BME280;57318;56.232;43.944;2022-12-08T08:50:56;100477.13;;;-6.06;43.97
69980;BME280;57318;56.232;43.944;2022-12-08T08:53:22;100483.16;;;-5.95;43.84
69980;BME280;57318;56.232;43.944;2022-12-08T08:55:49;100473.72;;;-5.79;43.73
69980;BME280;57318;56.232;43.944;2022-12-08T08:58:15;100510.09;;;-5.44;43.09
69980;BME280;57318;56.232;43.944;2022-12-08T09:00:41;100492.84;;;-5.35;43.05
69980;BME280;57318;56.232;43.944;2022-12-08T09:03:07;100489.41;;;-5.05;42.57
69980;BME280;57318;56.232;43.944;2022-12-08T09:05:32;100503.22;;;-4.97;41.94
69980;BME280;57318;56.232;43.944;2022-12-08T09:07:58;100469.56;;;-5.14;42.36
69980;BME280;57318;56.232;43.944;2022-12-08T09:10:23;100483.38;;;-5.18;41.91
69980;BME280;57318;56.232;43.944;2022-12-08T09:12:49;100477.31;;;-4.75;42.06
69980;BME280;57318;56.232;43.944;2022-12-08T09:15:14;100478.19;;;-4.87;41.53
69980;BME280;57318;56.232;43.944;2022-12-08T09:17:40;100475.53;;;-4.38;41.01
69980;BME280;57318;56.232;43.944;2022-12-08T09:20:06;100477.28;;;-4.54;41.11
69980;BME280;57318;56.232;43.944;2022-12-08T09:22:32;100466.06;;;-4.46;41.21
69980;BME280;57318;56.232;43.944;2022-12-08T09:24:57;100479.88;;;-4.46;40.98
69980;BME280;57318;56.232;43.944;2022-12-08T09:27:23;100475.47;;;-4.16;40.30
69980;BME280;57318;56.232;43.944;2022-12-08T09:29:49;100482.38;;;-4.12;40.75
69980;BME280;57318;56.232;43.944;2022-12-08T09:32:14;100480.72;;;-4.31;40.76
69980;BME280;57318;56.232;43.944;2022-12-08T09:34:40;100467.69;;;-4.13;40.71
69980;BME280;57318;56.232;43.944;2022-12-08T09:37:05;100463.25;;;-3.89;40.09
69980;BME280;57318;56.232;43.944;2022-12-08T09:39:31;100462.25;;;-3.60;39.19
69980;BME280;57318;56.232;43.944;2022-12-08T09:42:02;100454.47;;;-3.64;39.62
69980;BME280;57318;56.232;43.944;2022-12-08T09:47:02;100452.81;;;-3.77;39.72
69980;BME280;57318;56.232;43.944;2022-12-08T09:49:39;100441.53;;;-3.76;39.80
69980;BME280;57318;56.232;43.944;2022-12-08T09:52:14;100441.84;;;-4.59;40.92
69980;BME280;57318;56.232;43.944;2022-12-08T09:54:44;100434.94;;;-4.59;41.47
69980;BME280;57318;56.232;43.944;2022-12-08T09:57:13;100429.56;;;-4.05;40.43
69980;BME280;57318;56.232;43.944;2022-12-08T09:59:53;100446.94;;;-4.19;40.68
69980;BME280;57318;56.232;43.944;2022-12-08T10:02:25;100435.78;;;-4.41;41.06
69980;BME280;57318;56.232;43.944;2022-12-08T10:04:54;100440.78;;;-3.93;40.44
69980;BME280;57318;56.232;43.944;2022-12-08T10:07:28;100420.31;;;-5.32;42.10
69980;BME280;57318;56.232;43.944;2022-12-08T10:09:59;100416.75;;;-5.91;44.99
69980;BME280;57318;56.232;43.944;2022-12-08T10:15:02;100414.97;;;-7.51;47.57
69980;BME280;57318;56.232;43.944;2022-12-08T10:17:37;100425.81;;;-7.86;49.00
69980;BME280;57318;56.232;43.944;2022-12-08T10:20:12;100418.81;;;-9.26;53.38
69980;BME280;57318;56.232;43.944;2022-12-08T10:22:39;100421.28;;;-9.83;55.56
69980;BME280;57318;56.232;43.944;2022-12-08T10:25:18;100429.88;;;-10.25;57.23
69980;BME280;57318;56.232;43.944;2022-12-08T10:27:50;100435.56;;;-10.82;59.33
69980;BME280;57318;56.232;43.944;2022-12-08T10:30:18;100410.84;;;-11.15;60.84
69980;BME280;57318;56.232;43.944;2022-12-08T10:32:48;100412.16;;;-11.33;62.20
69980;BME280;57318;56.232;43.944;2022-12-08T10:35:16;100410.16;;;-11.45;63.04
69980;BME280;57318;56.232;43.944;2022-12-08T10:38:00;100410.66;;;-11.59;64.22
69980;BME280;57318;56.232;43.944;2022-12-08T10:40:33;100408.81;;;-11.64;64.59
69980;BME280;57318;56.232;43.944;2022-12-08T10:42:59;100401.59;;;-11.80;65.55
69980;BME280;57318;56.232;43.944;2022-12-08T10:45:35;100405.88;;;-11.79;66.09
69980;BME280;57318;56.232;43.944;2022-12-08T10:50:35;100388.16;;;-11.70;66.00
69980;BME280;57318;56.232;43.944;2022-12-08T10:53:13;100384.81;;;-11.67;66.37
69980;BME280;57318;56.232;43.944;2022-12-08T10:58:37;100372.69;;;-11.73;66.95
69980;BME280;57318;56.232;43.944;2022-12-08T11:01:08;100344.09;;;-11.88;67.52
69980;BME280;57318;56.232;43.944;2022-12-08T11:03:44;100358.59;;;-11.90;67.75
69980;BME280;57318;56.232;43.944;2022-12-08T11:06:17;100332.84;;;-11.96;67.98
69980;BME280;57318;56.232;43.944;2022-12-08T11:08:54;100328.38;;;-12.05;68.37
69980;BME280;57318;56.232;43.944;2022-12-08T11:11:21;100313.75;;;-12.08;68.60
69980;BME280;57318;56.232;43.944;2022-12-08T11:14:06;100311.16;;;-12.09;68.77
69980;BME280;57318;56.232;43.944;2022-12-08T11:16:32;100310.31;;;-12.10;69.28
69980;BME280;57318;56.232;43.944;2022-12-08T11:19:03;100305.75;;;-12.20;69.39
69980;BME280;57318;56.232;43.944;2022-12-08T11:21:36;100293.03;;;-12.17;68.80
69980;BME280;57318;56.232;43.944;2022-12-08T11:24:31;100292.19;;;-12.18;69.41
69980;BME280;57318;56.232;43.944;2022-12-08T11:27:01;100308.44;;;-12.16;69.39
69980;BME280;57318;56.232;43.944;2022-12-08T11:29:30;100303.16;;;-12.22;69.76
69980;BME280;57318;56.232;43.944;2022-12-08T11:32:00;100316.84;;;-12.21;69.56
69980;BME280;57318;56.232;43.944;2022-12-08T11:34:40;100327.84;;;-12.25;69.88
69980;BME280;57318;56.232;43.944;2022-12-08T11:37:32;100320.19;;;-12.24;70.11
69980;BME280;57318;56.232;43.944;2022-12-08T11:45:23;100320.16;;;-12.25;71.00
69980;BME280;57318;56.232;43.944;2022-12-08T11:50:48;100312.63;;;-12.19;70.92
69980;BME280;57318;56.232;43.944;2022-12-08T11:56:25;100303.25;;;-12.19;70.97
69980;BME280;57318;56.232;43.944;2022-12-08T11:59:00;100322.03;;;-12.20;70.79
69980;BME280;57318;56.232;43.944;2022-12-08T12:01:27;100328.03;;;-12.18;71.33
69980;BME280;57318;56.232;43.944;2022-12-08T12:15:28;100301.47;;;-11.86;71.11
69980;BME280;57318;56.232;43.944;2022-12-08T12:18:03;100311.75;;;-11.85;71.30
69980;BME280;57318;56.232;43.944;2022-12-08T12:20:33;100294.75;;;-11.81;71.03
69980;BME280;57318;56.232;43.944;2022-12-08T12:23:07;100286.16;;;-11.83;71.08
69980;BME280;57318;56.232;43.944;2022-12-08T12:25:47;100295.59;;;-11.81;71.19
69980;BME280;57318;56.232;43.944;2022-12-08T12:28:15;100278.44;;;-11.85;71.38
69980;BME280;57318;56.232;43.944;2022-12-08T12:31:01;100284.41;;;-11.84;71.47
69980;BME280;57318;56.232;43.944;2022-12-08T12:33:29;100280.22;;;-11.81;71.35
69980;BME280;57318;56.232;43.944;2022-12-08T12:35:56;100279.38;;;-11.81;71.44
69980;BME280;57318;56.232;43.944;2022-12-08T12:41:28;100264.03;;;-11.80;71.33
69980;BME280;57318;56.232;43.944;2022-12-08T12:57:35;100266.09;;;-11.63;71.54
69980;BME280;57318;56.232;43.944;2022-12-08T13:02:38;100255.25;;;-11.51;71.32
69980;BME280;57318;56.232;43.944;2022-12-08T13:05:28;100254.72;;;-11.38;71.05
69980;BME280;57318;56.232;43.944;2022-12-08T13:08:01;100250.59;;;-11.30;70.65
69980;BME280;57318;56.232;43.944;2022-12-08T13:13:16;100247.22;;;-11.27;71.25
69980;BME280;57318;56.232;43.944;2022-12-08T13:18:24;100219.16;;;-11.19;71.32
69980;BME280;57318;56.232;43.944;2022-12-08T13:20:56;100238.81;;;-11.21;71.18
69980;BME280;57318;56.232;43.944;2022-12-08T13:28:32;100216.75;;;-11.12;71.38
69980;BME280;57318;56.232;43.944;2022-12-08T13:30:59;100252.84;;;-11.04;71.46
69980;BME280;57318;56.232;43.944;2022-12-08T13:33:28;100229.75;;;-11.04;71.44
69980;BME280;57318;56.232;43.944;2022-12-08T13:38:44;100240.19;;;-10.95;71.13
69980;BME280;57318;56.232;43.944;2022-12-08T13:41:21;100241.16;;;-10.90;70.92
69980;BME280;57318;56.232;43.944;2022-12-08T13:44:13;100245.47;;;-10.89;70.45
69980;BME280;57318;56.232;43.944;2022-12-08T13:46:48;100222.34;;;-10.89;70.77
69980;BME280;57318;56.232;43.944;2022-12-08T13:49:20;100232.63;;;-10.89;70.57
69980;BME280;57318;56.232;43.944;2022-12-08T13:51:47;100240.31;;;-10.89;70.73
69980;BME280;57318;56.232;43.944;2022-12-08T13:56:47;100220.66;;;-10.86;71.15
69980;BME280;57318;56.232;43.944;2022-12-08T14:01:46;100188.09;;;-10.91;71.66
69980;BME280;57318;56.232;43.944;2022-12-08T14:04:16;100199.13;;;-10.95;72.20
69980;BME280;57318;56.232;43.944;2022-12-08T14:06:45;100192.31;;;-10.93;72.32
69980;BME280;57318;56.232;43.944;2022-12-08T14:09:24;100187.19;;;-10.93;72.34
69980;BME280;57318;56.232;43.944;2022-12-08T14:16:52;100195.91;;;-10.84;72.62
69980;BME280;57318;56.232;43.944;2022-12-08T14:19:21;100199.38;;;-10.82;72.55
69980;BME280;57318;56.232;43.944;2022-12-08T14:24:24;100189.22;;;-10.76;72.67
69980;BME280;57318;56.232;43.944;2022-12-08T14:26:54;100210.59;;;-10.76;72.82
69980;BME280;57318;56.232;43.944;2022-12-08T14:31:56;100196.16;;;-10.69;72.40
69980;BME280;57318;56.232;43.944;2022-12-08T14:34:22;100188.47;;;-10.69;72.56
69980;BME280;57318;56.232;43.944;2022-12-08T14:36:47;100178.25;;;-10.66;72.73
69980;BME280;57318;56.232;43.944;2022-12-08T14:39:13;100196.34;;;-10.60;72.37
69980;BME280;57318;56.232;43.944;2022-12-08T14:41:39;100189.44;;;-10.64;72.10